< < Back
Terminal Aerodrome Forecast


Current Version              Previous Versions:   1  2  3  4  5  6  7  8  9  

Terminal Aerodrome Forecast

097
FTUS44 KOHX 241317 AAA
TAFCSV
TAF AMD
KCSV 241317Z 2413/2512 16006KT P6SM SCT040 BKN200
     FM250300 00000KT P6SM BKN250=

Latest METAR

966
SAUS70 KWBC 242100 RRF
MTRCSV
METAR KCSV 242053Z AUTO 00000KT 10SM FEW038 SCT050 28/20 A3023 RMK AO2
SLP216 T02830200 57016


USA.gov is the U.S. government's official web portal to all federal, state and local government web resources and services.